sensor_id;sensor_type;location;lat;lon;timestamp;pressure;altitude;pressure_sealevel;temperature;humidity
60719;BME280;46567;51.660;5.824;2023-04-07T00:00:39;101330.0;;;10.7;93.0
60719;BME280;46567;51.660;5.824;2023-04-07T00:05:39;101330.0;;;10.6;93.0
60719;BME280;46567;51.660;5.824;2023-04-07T00:10:39;101330.0;;;10.6;93.5
60719;BME280;46567;51.660;5.824;2023-04-07T00:15:39;101340.0;;;10.6;93.5
60719;BME280;46567;51.660;5.824;2023-04-07T00:20:39;101330.0;;;10.6;93.5
60719;BME280;46567;51.660;5.824;2023-04-07T00:25:39;101340.0;;;10.6;93.5
60719;BME280;46567;51.660;5.824;2023-04-07T00:30:39;101340.0;;;10.6;93.5
60719;BME280;46567;51.660;5.824;2023-04-07T00:35:39;101340.0;;;10.6;93.5
60719;BME280;46567;51.660;5.824;2023-04-07T00:40:39;101330.0;;;10.6;93.5
60719;BME280;46567;51.660;5.824;2023-04-07T00:45:39;101330.0;;;10.6;93.5
60719;BME280;46567;51.660;5.824;2023-04-07T00:50:39;101340.0;;;10.5;93.5
60719;BME280;46567;51.660;5.824;2023-04-07T00:55:39;101340.0;;;10.5;93.5
60719;BME280;46567;51.660;5.824;2023-04-07T01:00:47;101340.0;;;10.5;93.5
60719;BME280;46567;51.660;5.824;2023-04-07T01:05:57;101340.0;;;10.5;93.5
60719;BME280;46567;51.660;5.824;2023-04-07T01:10:57;101340.0;;;10.5;93.5
60719;BME280;46567;51.660;5.824;2023-04-07T01:15:39;101330.0;;;10.5;93.5
60719;BME280;46567;51.660;5.824;2023-04-07T01:20:41;101330.0;;;10.5;93.5
60719;BME280;46567;51.660;5.824;2023-04-07T01:26:29;101330.0;;;10.5;93.0
60719;BME280;46567;51.660;5.824;2023-04-07T01:30:40;101330.0;;;10.4;93.0
60719;BME280;46567;51.660;5.824;2023-04-07T01:35:40;101340.0;;;10.4;93.0
60719;BME280;46567;51.660;5.824;2023-04-07T01:40:39;101360.0;;;10.3;93.0
60719;BME280;46567;51.660;5.824;2023-04-07T01:45:40;101350.0;;;10.3;93.0
60719;BME280;46567;51.660;5.824;2023-04-07T01:50:39;101360.0;;;10.3;93.0
60719;BME280;46567;51.660;5.824;2023-04-07T01:55:39;101360.0;;;10.2;93.0
60719;BME280;46567;51.660;5.824;2023-04-07T02:00:40;101360.0;;;10.2;93.0
60719;BME280;46567;51.660;5.824;2023-04-07T02:05:39;101360.0;;;10.1;93.0
60719;BME280;46567;51.660;5.824;2023-04-07T02:10:39;101360.0;;;10.1;93.0
60719;BME280;46567;51.660;5.824;2023-04-07T02:15:39;101360.0;;;10.1;93.0
60719;BME280;46567;51.660;5.824;2023-04-07T02:20:41;101380.0;;;10.0;93.0
60719;BME280;46567;51.660;5.824;2023-04-07T02:25:39;101380.0;;;10.0;93.5
60719;BME280;46567;51.660;5.824;2023-04-07T02:30:39;101390.0;;;10.0;93.5
60719;BME280;46567;51.660;5.824;2023-04-07T02:35:39;101380.0;;;10.0;93.5
60719;BME280;46567;51.660;5.824;2023-04-07T02:40:39;101390.0;;;10.1;93.5
60719;BME280;46567;51.660;5.824;2023-04-07T02:45:39;101390.0;;;10.1;93.0
60719;BME280;46567;51.660;5.824;2023-04-07T02:50:39;101390.0;;;10.1;93.0
60719;BME280;46567;51.660;5.824;2023-04-07T02:55:39;101390.0;;;10.1;93.0
60719;BME280;46567;51.660;5.824;2023-04-07T03:00:39;101390.0;;;10.1;93.0
60719;BME280;46567;51.660;5.824;2023-04-07T03:05:39;101390.0;;;10.1;93.0
60719;BME280;46567;51.660;5.824;2023-04-07T03:10:39;101380.0;;;10.1;93.0
60719;BME280;46567;51.660;5.824;2023-04-07T03:15:39;101380.0;;;10.1;93.0
60719;BME280;46567;51.660;5.824;2023-04-07T03:20:39;101370.0;;;10.0;93.0
60719;BME280;46567;51.660;5.824;2023-04-07T03:25:39;101380.0;;;10.0;93.0
60719;BME280;46567;51.660;5.824;2023-04-07T03:30:39;101380.0;;;10.0;93.0
60719;BME280;46567;51.660;5.824;2023-04-07T03:35:39;101380.0;;;10.0;93.0
60719;BME280;46567;51.660;5.824;2023-04-07T03:40:39;101390.0;;;10.0;93.0
60719;BME280;46567;51.660;5.824;2023-04-07T03:45:39;101380.0;;;10.0;93.0
60719;BME280;46567;51.660;5.824;2023-04-07T03:50:40;101380.0;;;10.0;93.5
60719;BME280;46567;51.660;5.824;2023-04-07T03:55:39;101390.0;;;10.0;93.5
60719;BME280;46567;51.660;5.824;2023-04-07T04:00:39;101390.0;;;10.0;93.0
60719;BME280;46567;51.660;5.824;2023-04-07T04:05:39;101390.0;;;10.0;93.5
60719;BME280;46567;51.660;5.824;2023-04-07T04:10:39;101390.0;;;10.0;93.5
60719;BME280;46567;51.660;5.824;2023-04-07T04:15:39;101400.0;;;10.0;93.5
60719;BME280;46567;51.660;5.824;2023-04-07T04:20:39;101400.0;;;10.0;93.5
60719;BME280;46567;51.660;5.824;2023-04-07T04:25:39;101400.0;;;10.0;93.5
60719;BME280;46567;51.660;5.824;2023-04-07T04:30:39;101410.0;;;10.0;93.5
60719;BME280;46567;51.660;5.824;2023-04-07T04:35:39;101400.0;;;10.0;93.5
60719;BME280;46567;51.660;5.824;2023-04-07T04:40:39;101410.0;;;10.0;93.5
60719;BME280;46567;51.660;5.824;2023-04-07T04:45:39;101410.0;;;10.0;93.0
60719;BME280;46567;51.660;5.824;2023-04-07T04:50:41;101420.0;;;10.0;93.0
60719;BME280;46567;51.660;5.824;2023-04-07T04:55:39;101420.0;;;10.0;93.0
60719;BME280;46567;51.660;5.824;2023-04-07T05:00:40;101420.0;;;10.0;93.0
60719;BME280;46567;51.660;5.824;2023-04-07T05:05:39;101430.0;;;10.0;93.0
60719;BME280;46567;51.660;5.824;2023-04-07T05:10:39;101440.0;;;10.0;93.0
60719;BME280;46567;51.660;5.824;2023-04-07T05:15:39;101430.0;;;10.1;93.0
60719;BME280;46567;51.660;5.824;2023-04-07T05:20:39;101430.0;;;10.1;93.0
60719;BME280;46567;51.660;5.824;2023-04-07T05:25:39;101440.0;;;10.1;93.0
60719;BME280;46567;51.660;5.824;2023-04-07T05:30:39;101430.0;;;10.1;93.0
60719;BME280;46567;51.660;5.824;2023-04-07T05:35:39;101440.0;;;10.1;92.5
60719;BME280;46567;51.660;5.824;2023-04-07T05:40:39;101450.0;;;10.0;93.0
60719;BME280;46567;51.660;5.824;2023-04-07T05:45:39;101450.0;;;10.0;93.0
60719;BME280;46567;51.660;5.824;2023-04-07T05:50:39;101460.0;;;10.0;92.5
60719;BME280;46567;51.660;5.824;2023-04-07T05:55:41;101460.0;;;10.0;93.0
60719;BME280;46567;51.660;5.824;2023-04-07T06:00:40;101460.0;;;10.1;93.0
60719;BME280;46567;51.660;5.824;2023-04-07T06:05:39;101460.0;;;10.1;93.0
60719;BME280;46567;51.660;5.824;2023-04-07T06:10:39;101470.0;;;10.1;93.0
60719;BME280;46567;51.660;5.824;2023-04-07T06:15:39;101480.0;;;10.1;93.0
60719;BME280;46567;51.660;5.824;2023-04-07T06:20:39;101480.0;;;10.1;93.0
60719;BME280;46567;51.660;5.824;2023-04-07T06:25:39;101490.0;;;10.2;93.0
60719;BME280;46567;51.660;5.824;2023-04-07T06:30:39;101490.0;;;10.2;93.0
60719;BME280;46567;51.660;5.824;2023-04-07T06:35:39;101490.0;;;10.2;93.0
60719;BME280;46567;51.660;5.824;2023-04-07T06:40:39;101490.0;;;10.2;93.0
60719;BME280;46567;51.660;5.824;2023-04-07T06:45:39;101500.0;;;10.3;93.0
60719;BME280;46567;51.660;5.824;2023-04-07T06:50:39;101500.0;;;10.3;93.0
60719;BME280;46567;51.660;5.824;2023-04-07T06:55:39;101510.0;;;10.3;93.0
60719;BME280;46567;51.660;5.824;2023-04-07T07:00:39;101510.0;;;10.3;92.5
60719;BME280;46567;51.660;5.824;2023-04-07T07:05:39;101520.0;;;10.3;93.0
60719;BME280;46567;51.660;5.824;2023-04-07T07:10:39;101530.0;;;10.3;93.0
60719;BME280;46567;51.660;5.824;2023-04-07T07:15:39;101520.0;;;10.3;92.5
60719;BME280;46567;51.660;5.824;2023-04-07T07:20:39;101520.0;;;10.3;92.5
60719;BME280;46567;51.660;5.824;2023-04-07T07:25:39;101530.0;;;10.3;92.5
60719;BME280;46567;51.660;5.824;2023-04-07T07:30:40;101530.0;;;10.4;92.5
60719;BME280;46567;51.660;5.824;2023-04-07T07:35:39;101530.0;;;10.4;92.5
60719;BME280;46567;51.660;5.824;2023-04-07T07:40:39;101540.0;;;10.5;92.0
60719;BME280;46567;51.660;5.824;2023-04-07T07:45:39;101550.0;;;10.6;92.0
60719;BME280;46567;51.660;5.824;2023-04-07T07:50:39;101540.0;;;10.6;92.0
60719;BME280;46567;51.660;5.824;2023-04-07T07:55:39;101540.0;;;10.7;92.0
60719;BME280;46567;51.660;5.824;2023-04-07T08:00:39;101550.0;;;10.8;91.5
60719;BME280;46567;51.660;5.824;2023-04-07T08:05:39;101560.0;;;10.9;91.5
60719;BME280;46567;51.660;5.824;2023-04-07T08:10:39;101560.0;;;11.0;91.0
60719;BME280;46567;51.660;5.824;2023-04-07T08:15:39;101560.0;;;11.2;91.0
60719;BME280;46567;51.660;5.824;2023-04-07T08:20:39;101570.0;;;11.3;90.5
60719;BME280;46567;51.660;5.824;2023-04-07T08:25:39;101570.0;;;11.5;90.0
60719;BME280;46567;51.660;5.824;2023-04-07T08:30:39;101580.0;;;11.6;89.0
60719;BME280;46567;51.660;5.824;2023-04-07T08:35:39;101580.0;;;11.6;89.0
60719;BME280;46567;51.660;5.824;2023-04-07T08:40:39;101580.0;;;11.6;88.0
60719;BME280;46567;51.660;5.824;2023-04-07T08:45:40;101590.0;;;11.6;88.0
60719;BME280;46567;51.660;5.824;2023-04-07T08:50:41;101590.0;;;11.6;88.0
60719;BME280;46567;51.660;5.824;2023-04-07T08:55:39;101600.0;;;11.6;88.0
60719;BME280;46567;51.660;5.824;2023-04-07T09:00:39;101610.0;;;11.5;87.5
60719;BME280;46567;51.660;5.824;2023-04-07T09:05:39;101610.0;;;11.5;88.0
60719;BME280;46567;51.660;5.824;2023-04-07T09:10:39;101620.0;;;11.4;87.5
60719;BME280;46567;51.660;5.824;2023-04-07T09:15:39;101620.0;;;11.5;88.0
60719;BME280;46567;51.660;5.824;2023-04-07T09:21:04;101620.0;;;11.5;87.5
60719;BME280;46567;51.660;5.824;2023-04-07T09:25:39;101620.0;;;11.6;88.0
60719;BME280;46567;51.660;5.824;2023-04-07T09:30:51;101620.0;;;11.7;88.0
60719;BME280;46567;51.660;5.824;2023-04-07T09:35:50;101620.0;;;11.9;88.0
60719;BME280;46567;51.660;5.824;2023-04-07T09:40:39;101620.0;;;11.9;87.0
60719;BME280;46567;51.660;5.824;2023-04-07T09:45:39;101620.0;;;11.8;86.5
60719;BME280;46567;51.660;5.824;2023-04-07T09:50:40;101620.0;;;11.8;86.0
60719;BME280;46567;51.660;5.824;2023-04-07T09:55:39;101620.0;;;11.8;86.5
60719;BME280;46567;51.660;5.824;2023-04-07T10:00:40;101620.0;;;11.8;86.0
60719;BME280;46567;51.660;5.824;2023-04-07T10:05:39;101630.0;;;12.0;86.5
60719;BME280;46567;51.660;5.824;2023-04-07T10:10:40;101630.0;;;12.1;86.0
60719;BME280;46567;51.660;5.824;2023-04-07T10:15:39;101640.0;;;12.0;85.5
60719;BME280;46567;51.660;5.824;2023-04-07T10:20:39;101640.0;;;11.9;85.0
60719;BME280;46567;51.660;5.824;2023-04-07T10:25:39;101630.0;;;11.9;85.0
60719;BME280;46567;51.660;5.824;2023-04-07T10:30:39;101640.0;;;11.9;85.0
60719;BME280;46567;51.660;5.824;2023-04-07T10:36:03;101650.0;;;12.0;85.0
60719;BME280;46567;51.660;5.824;2023-04-07T10:40:40;101650.0;;;12.0;84.5
60719;BME280;46567;51.660;5.824;2023-04-07T10:45:56;101650.0;;;12.0;84.5
60719;BME280;46567;51.660;5.824;2023-04-07T10:50:39;101640.0;;;12.0;84.5
60719;BME280;46567;51.660;5.824;2023-04-07T10:55:40;101660.0;;;12.0;84.5
60719;BME280;46567;51.660;5.824;2023-04-07T11:00:39;101660.0;;;11.9;84.0
60719;BME280;46567;51.660;5.824;2023-04-07T11:05:39;101660.0;;;11.8;84.0
60719;BME280;46567;51.660;5.824;2023-04-07T11:10:39;101670.0;;;11.7;84.5
60719;BME280;46567;51.660;5.824;2023-04-07T11:15:39;101670.0;;;11.6;84.5
60719;BME280;46567;51.660;5.824;2023-04-07T11:20:40;101680.0;;;11.6;84.5
60719;BME280;46567;51.660;5.824;2023-04-07T11:25:40;101670.0;;;11.6;85.0
60719;BME280;46567;51.660;5.824;2023-04-07T11:30:44;101680.0;;;11.7;85.0
60719;BME280;46567;51.660;5.824;2023-04-07T11:35:46;101680.0;;;11.9;84.5
60719;BME280;46567;51.660;5.824;2023-04-07T11:40:39;101680.0;;;11.9;84.0
60719;BME280;46567;51.660;5.824;2023-04-07T11:45:39;101690.0;;;12.0;83.5
60719;BME280;46567;51.660;5.824;2023-04-07T11:50:40;101700.0;;;12.1;83.5
60719;BME280;46567;51.660;5.824;2023-04-07T11:55:39;101690.0;;;12.2;83.5
60719;BME280;46567;51.660;5.824;2023-04-07T12:00:52;101690.0;;;12.3;83.0
60719;BME280;46567;51.660;5.824;2023-04-07T12:05:40;101700.0;;;12.2;82.5
60719;BME280;46567;51.660;5.824;2023-04-07T12:10:39;101710.0;;;12.0;82.5
60719;BME280;46567;51.660;5.824;2023-04-07T12:15:39;101710.0;;;11.8;83.0
60719;BME280;46567;51.660;5.824;2023-04-07T12:20:39;101720.0;;;11.7;84.0
60719;BME280;46567;51.660;5.824;2023-04-07T12:25:39;101720.0;;;11.7;83.5
60719;BME280;46567;51.660;5.824;2023-04-07T12:30:39;101730.0;;;11.8;84.0
60719;BME280;46567;51.660;5.824;2023-04-07T12:35:39;101730.0;;;11.9;83.5
60719;BME280;46567;51.660;5.824;2023-04-07T12:40:39;101730.0;;;11.9;83.0
60719;BME280;46567;51.660;5.824;2023-04-07T12:45:39;101740.0;;;11.9;83.0
60719;BME280;46567;51.660;5.824;2023-04-07T12:50:39;101740.0;;;12.1;83.0
60719;BME280;46567;51.660;5.824;2023-04-07T12:55:39;101740.0;;;12.2;82.5
60719;BME280;46567;51.660;5.824;2023-04-07T13:00:39;101740.0;;;12.4;82.5
60719;BME280;46567;51.660;5.824;2023-04-07T13:05:39;101730.0;;;12.6;82.0
60719;BME280;46567;51.660;5.824;2023-04-07T13:10:39;101740.0;;;12.8;81.5
60719;BME280;46567;51.660;5.824;2023-04-07T13:15:39;101750.0;;;12.8;80.5
60719;BME280;46567;51.660;5.824;2023-04-07T13:20:39;101740.0;;;12.7;81.0
60719;BME280;46567;51.660;5.824;2023-04-07T13:25:39;101750.0;;;12.7;80.5
60719;BME280;46567;51.660;5.824;2023-04-07T13:30:39;101760.0;;;12.6;80.5
60719;BME280;46567;51.660;5.824;2023-04-07T13:35:39;101750.0;;;12.5;80.5
60719;BME280;46567;51.660;5.824;2023-04-07T13:40:39;101760.0;;;12.4;80.5
60719;BME280;46567;51.660;5.824;2023-04-07T13:45:39;101760.0;;;12.5;81.0
60719;BME280;46567;51.660;5.824;2023-04-07T13:50:39;101750.0;;;12.6;80.5
60719;BME280;46567;51.660;5.824;2023-04-07T13:55:39;101750.0;;;12.8;81.0
60719;BME280;46567;51.660;5.824;2023-04-07T14:00:39;101750.0;;;12.9;80.0
60719;BME280;46567;51.660;5.824;2023-04-07T14:05:39;101750.0;;;12.9;79.5
60719;BME280;46567;51.660;5.824;2023-04-07T14:10:39;101750.0;;;12.8;79.5
60719;BME280;46567;51.660;5.824;2023-04-07T14:15:39;101760.0;;;12.6;79.5
60719;BME280;46567;51.660;5.824;2023-04-07T14:20:39;101750.0;;;12.6;80.0
60719;BME280;46567;51.660;5.824;2023-04-07T14:25:39;101760.0;;;12.6;80.0
60719;BME280;46567;51.660;5.824;2023-04-07T14:30:39;101760.0;;;12.6;80.0
60719;BME280;46567;51.660;5.824;2023-04-07T14:35:39;101760.0;;;12.6;80.0
60719;BME280;46567;51.660;5.824;2023-04-07T14:40:40;101760.0;;;12.7;79.5
60719;BME280;46567;51.660;5.824;2023-04-07T14:45:39;101760.0;;;12.8;80.0
60719;BME280;46567;51.660;5.824;2023-04-07T14:50:39;101770.0;;;12.9;80.0
60719;BME280;46567;51.660;5.824;2023-04-07T14:55:40;101760.0;;;12.9;79.5
60719;BME280;46567;51.660;5.824;2023-04-07T15:00:39;101770.0;;;12.9;79.5
60719;BME280;46567;51.660;5.824;2023-04-07T15:05:39;101770.0;;;13.0;79.5
60719;BME280;46567;51.660;5.824;2023-04-07T15:10:39;101770.0;;;13.0;79.5
60719;BME280;46567;51.660;5.824;2023-04-07T15:15:39;101780.0;;;12.9;79.0
60719;BME280;46567;51.660;5.824;2023-04-07T15:20:39;101770.0;;;12.9;79.0
60719;BME280;46567;51.660;5.824;2023-04-07T15:25:39;101780.0;;;12.8;79.0
60719;BME280;46567;51.660;5.824;2023-04-07T15:30:39;101780.0;;;12.7;79.0
60719;BME280;46567;51.660;5.824;2023-04-07T15:35:39;101790.0;;;12.6;79.0
60719;BME280;46567;51.660;5.824;2023-04-07T15:40:40;101790.0;;;12.5;79.0
60719;BME280;46567;51.660;5.824;2023-04-07T15:45:39;101790.0;;;12.4;79.0
60719;BME280;46567;51.660;5.824;2023-04-07T15:50:39;101800.0;;;12.3;79.5
60719;BME280;46567;51.660;5.824;2023-04-07T15:55:39;101800.0;;;12.2;80.0
60719;BME280;46567;51.660;5.824;2023-04-07T16:00:39;101800.0;;;12.2;80.0
60719;BME280;46567;51.660;5.824;2023-04-07T16:05:39;101810.0;;;12.3;80.5
60719;BME280;46567;51.660;5.824;2023-04-07T16:10:40;101810.0;;;12.3;80.5
60719;BME280;46567;51.660;5.824;2023-04-07T16:15:39;101820.0;;;12.3;80.5
60719;BME280;46567;51.660;5.824;2023-04-07T16:20:40;101810.0;;;12.2;80.5
60719;BME280;46567;51.660;5.824;2023-04-07T16:25:39;101820.0;;;12.1;81.0
60719;BME280;46567;51.660;5.824;2023-04-07T16:30:39;101820.0;;;12.1;81.0
60719;BME280;46567;51.660;5.824;2023-04-07T16:35:39;101820.0;;;12.0;81.5
60719;BME280;46567;51.660;5.824;2023-04-07T16:40:39;101820.0;;;11.9;81.5
60719;BME280;46567;51.660;5.824;2023-04-07T16:45:39;101820.0;;;11.9;81.5
60719;BME280;46567;51.660;5.824;2023-04-07T16:50:40;101830.0;;;11.8;81.5
60719;BME280;46567;51.660;5.824;2023-04-07T16:55:39;101830.0;;;11.8;82.0
60719;BME280;46567;51.660;5.824;2023-04-07T17:00:39;101840.0;;;11.8;82.0
60719;BME280;46567;51.660;5.824;2023-04-07T17:05:39;101840.0;;;11.7;82.5
60719;BME280;46567;51.660;5.824;2023-04-07T17:10:39;101850.0;;;11.7;82.5
60719;BME280;46567;51.660;5.824;2023-04-07T17:15:39;101860.0;;;11.7;82.5
60719;BME280;46567;51.660;5.824;2023-04-07T17:20:39;101870.0;;;11.7;82.5
60719;BME280;46567;51.660;5.824;2023-04-07T17:25:39;101880.0;;;11.7;82.5
60719;BME280;46567;51.660;5.824;2023-04-07T17:30:39;101890.0;;;11.6;82.5
60719;BME280;46567;51.660;5.824;2023-04-07T17:35:39;101890.0;;;11.6;82.5
60719;BME280;46567;51.660;5.824;2023-04-07T17:40:39;101900.0;;;11.6;83.0
60719;BME280;46567;51.660;5.824;2023-04-07T17:45:39;101900.0;;;11.6;83.0
60719;BME280;46567;51.660;5.824;2023-04-07T17:50:39;101900.0;;;11.6;83.5
60719;BME280;46567;51.660;5.824;2023-04-07T17:55:39;101900.0;;;11.6;83.0
60719;BME280;46567;51.660;5.824;2023-04-07T18:00:39;101920.0;;;11.5;83.5
60719;BME280;46567;51.660;5.824;2023-04-07T18:05:41;101930.0;;;11.5;83.5
60719;BME280;46567;51.660;5.824;2023-04-07T18:10:39;101920.0;;;11.5;83.5
60719;BME280;46567;51.660;5.824;2023-04-07T18:15:39;101930.0;;;11.5;83.5
60719;BME280;46567;51.660;5.824;2023-04-07T18:20:39;101940.0;;;11.5;83.5
60719;BME280;46567;51.660;5.824;2023-04-07T18:25:39;101940.0;;;11.5;83.5
60719;BME280;46567;51.660;5.824;2023-04-07T18:30:39;101930.0;;;11.5;83.5
60719;BME280;46567;51.660;5.824;2023-04-07T18:35:39;101940.0;;;11.4;84.0
60719;BME280;46567;51.660;5.824;2023-04-07T18:40:39;101940.0;;;11.3;84.0
60719;BME280;46567;51.660;5.824;2023-04-07T18:45:39;101950.0;;;11.3;84.0
60719;BME280;46567;51.660;5.824;2023-04-07T18:50:39;101960.0;;;11.3;84.0
60719;BME280;46567;51.660;5.824;2023-04-07T18:55:39;101960.0;;;11.2;84.0
60719;BME280;46567;51.660;5.824;2023-04-07T19:00:39;101980.0;;;11.2;84.5
60719;BME280;46567;51.660;5.824;2023-04-07T19:05:39;101980.0;;;11.1;84.5
60719;BME280;46567;51.660;5.824;2023-04-07T19:10:39;101990.0;;;11.2;85.0
60719;BME280;46567;51.660;5.824;2023-04-07T19:15:39;102000.0;;;11.1;85.0
60719;BME280;46567;51.660;5.824;2023-04-07T19:20:39;102000.0;;;11.1;85.0
60719;BME280;46567;51.660;5.824;2023-04-07T19:25:39;102000.0;;;11.1;85.0
60719;BME280;46567;51.660;5.824;2023-04-07T19:30:39;102000.0;;;11.0;85.0
60719;BME280;46567;51.660;5.824;2023-04-07T19:35:39;102000.0;;;11.0;85.5
60719;BME280;46567;51.660;5.824;2023-04-07T19:40:39;102010.0;;;10.9;85.5
60719;BME280;46567;51.660;5.824;2023-04-07T19:45:39;102010.0;;;10.9;86.0
60719;BME280;46567;51.660;5.824;2023-04-07T19:50:40;102020.0;;;10.9;86.0
60719;BME280;46567;51.660;5.824;2023-04-07T19:55:39;102010.0;;;10.9;86.5
60719;BME280;46567;51.660;5.824;2023-04-07T20:00:40;102030.0;;;10.9;86.5
60719;BME280;46567;51.660;5.824;2023-04-07T20:05:39;102040.0;;;10.8;87.0
60719;BME280;46567;51.660;5.824;2023-04-07T20:10:39;102040.0;;;10.8;87.0
60719;BME280;46567;51.660;5.824;2023-04-07T20:15:39;102040.0;;;10.8;87.0
60719;BME280;46567;51.660;5.824;2023-04-07T20:20:39;102040.0;;;10.8;87.0
60719;BME280;46567;51.660;5.824;2023-04-07T20:25:39;102040.0;;;10.8;87.5
60719;BME280;46567;51.660;5.824;2023-04-07T20:30:39;102040.0;;;10.8;87.5
60719;BME280;46567;51.660;5.824;2023-04-07T20:35:39;102060.0;;;10.8;87.5
60719;BME280;46567;51.660;5.824;2023-04-07T20:40:39;102060.0;;;10.8;88.0
60719;BME280;46567;51.660;5.824;2023-04-07T20:45:39;102070.0;;;10.8;88.0
60719;BME280;46567;51.660;5.824;2023-04-07T20:50:39;102060.0;;;10.8;88.0
60719;BME280;46567;51.660;5.824;2023-04-07T20:55:39;102070.0;;;10.8;88.0
60719;BME280;46567;51.660;5.824;2023-04-07T21:00:39;102070.0;;;10.8;88.5
60719;BME280;46567;51.660;5.824;2023-04-07T21:05:39;102070.0;;;10.8;88.5
60719;BME280;46567;51.660;5.824;2023-04-07T21:10:39;102070.0;;;10.7;88.5
60719;BME280;46567;51.660;5.824;2023-04-07T21:15:39;102070.0;;;10.7;89.0
60719;BME280;46567;51.660;5.824;2023-04-07T21:20:39;102070.0;;;10.7;89.0
60719;BME280;46567;51.660;5.824;2023-04-07T21:25:39;102080.0;;;10.7;89.0
60719;BME280;46567;51.660;5.824;2023-04-07T21:30:39;102080.0;;;10.7;89.5
60719;BME280;46567;51.660;5.824;2023-04-07T21:35:39;102080.0;;;10.7;89.5
60719;BME280;46567;51.660;5.824;2023-04-07T21:40:39;102070.0;;;10.7;90.0
60719;BME280;46567;51.660;5.824;2023-04-07T21:45:39;102080.0;;;10.7;90.0
60719;BME280;46567;51.660;5.824;2023-04-07T21:50:39;102080.0;;;10.6;90.0
60719;BME280;46567;51.660;5.824;2023-04-07T22:00:39;102090.0;;;10.6;90.0
60719;BME280;46567;51.660;5.824;2023-04-07T22:05:39;102090.0;;;10.5;90.5
60719;BME280;46567;51.660;5.824;2023-04-07T22:10:39;102090.0;;;10.5;90.5
60719;BME280;46567;51.660;5.824;2023-04-07T22:15:39;102090.0;;;10.5;91.0
60719;BME280;46567;51.660;5.824;2023-04-07T22:20:39;102100.0;;;10.5;91.0
60719;BME280;46567;51.660;5.824;2023-04-07T22:25:40;102100.0;;;10.5;91.0
60719;BME280;46567;51.660;5.824;2023-04-07T22:45:39;102110.0;;;10.4;91.5
60719;BME280;46567;51.660;5.824;2023-04-07T22:50:53;102110.0;;;10.4;91.5
60719;BME280;46567;51.660;5.824;2023-04-07T22:55:39;102110.0;;;10.4;91.5
60719;BME280;46567;51.660;5.824;2023-04-07T23:00:39;102120.0;;;10.4;91.5
60719;BME280;46567;51.660;5.824;2023-04-07T23:05:39;102120.0;;;10.3;92.0
60719;BME280;46567;51.660;5.824;2023-04-07T23:10:39;102120.0;;;10.3;92.0
60719;BME280;46567;51.660;5.824;2023-04-07T23:15:39;102120.0;;;10.3;92.0
60719;BME280;46567;51.660;5.824;2023-04-07T23:20:40;102120.0;;;10.3;92.0
60719;BME280;46567;51.660;5.824;2023-04-07T23:25:39;102120.0;;;10.3;92.5
60719;BME280;46567;51.660;5.824;2023-04-07T23:30:39;102130.0;;;10.3;92.5
60719;BME280;46567;51.660;5.824;2023-04-07T23:35:39;102130.0;;;10.3;92.5
60719;BME280;46567;51.660;5.824;2023-04-07T23:40:39;102130.0;;;10.4;92.5
60719;BME280;46567;51.660;5.824;2023-04-07T23:45:39;102130.0;;;10.4;93.0
60719;BME280;46567;51.660;5.824;2023-04-07T23:50:39;102140.0;;;10.4;93.0
60719;BME280;46567;51.660;5.824;2023-04-07T23:55:39;102140.0;;;10.4;93.0
